Time;durP1;ratioP1;P1;durP2;ratioP2;P2;SDS_P1;SDS_P2;PMS_P1;PMS_P2;Temp;Humidity;BMP_temperature;BMP_pressure;BME280_temperature;BME280_humidity;BME280_pressure;Samples;Min_cycle;Max_cycle;Signal;HPM_P1;HPM_P2
2021/06/27 00:01:16;;;;;;;0.98;0.60;;;;;;;;;;5091324;28;20028;-53
2021/06/27 00:03:43;;;;;;;1.45;0.70;;;;;;;;;;5090730;28;20042;-52
2021/06/27 00:06:10;;;;;;;0.77;0.65;;;;;;;;;;5092971;28;20054;-53
2021/06/27 00:08:37;;;;;;;1.30;0.70;;;;;;;;;;5092475;28;20036;-53
2021/06/27 00:11:05;;;;;;;1.58;0.70;;;;;;;;;;5091087;28;20036;-52
2021/06/27 00:13:33;;;;;;;0.70;0.70;;;;;;;;;;5093187;28;20043;-53
2021/06/27 00:16:00;;;;;;;3.95;1.63;;;;;;;;;;5090309;28;20042;-52
2021/06/27 00:18:28;;;;;;;0.70;0.70;;;;;;;;;;5091061;28;20043;-53
2021/06/27 00:21:03;;;;;;;4.30;0.70;;;;;;;;;;5090154;28;20073;-52
2021/06/27 00:23:31;;;;;;;2.45;1.27;;;;;;;;;;5090377;28;20044;-53
2021/06/27 00:25:59;;;;;;;1.10;0.70;;;;;;;;;;5090228;28;20044;-53
2021/06/27 00:28:26;;;;;;;2.17;0.70;;;;;;;;;;5088984;28;20032;-53
2021/06/27 00:30:54;;;;;;;1.67;0.95;;;;;;;;;;5093432;28;20043;-54
2021/06/27 00:33:21;;;;;;;1.58;0.70;;;;;;;;;;5089166;28;20047;-53
2021/06/27 00:35:48;;;;;;;0.70;0.70;;;;;;;;;;5090999;28;20039;-53
2021/06/27 00:38:16;;;;;;;1.35;0.70;;;;;;;;;;5095487;28;20036;-53
2021/06/27 00:40:43;;;;;;;0.70;0.70;;;;;;;;;;5088781;28;20403;-53
2021/06/27 00:43:10;;;;;;;0.73;0.70;;;;;;;;;;5092832;28;20037;-52
2021/06/27 00:45:37;;;;;;;1.05;0.95;;;;;;;;;;5091567;28;20032;-53
2021/06/27 00:48:05;;;;;;;0.80;0.80;;;;;;;;;;5103111;28;20737;-50
2021/06/27 00:50:35;;;;;;;0.70;0.70;;;;;;;;;;5091548;28;20063;-52
2021/06/27 00:53:03;;;;;;;0.70;0.70;;;;;;;;;;5087713;28;20040;-53
2021/06/27 00:55:30;;;;;;;0.70;0.70;;;;;;;;;;5091959;28;20101;-52
2021/06/27 00:57:57;;;;;;;0.93;0.80;;;;;;;;;;5087909;28;20035;-50
2021/06/27 01:00:29;;;;;;;0.90;0.90;;;;;;;;;;5089073;28;20428;-54
2021/06/27 01:02:57;;;;;;;1.17;1.17;;;;;;;;;;5092133;28;20130;-53
2021/06/27 01:05:30;;;;;;;0.70;0.70;;;;;;;;;;5088658;28;20290;-52
2021/06/27 01:07:57;;;;;;;0.80;0.80;;;;;;;;;;5090812;28;20105;-53
2021/06/27 01:10:24;;;;;;;0.80;0.80;;;;;;;;;;5091105;28;20044;-53
2021/06/27 01:12:51;;;;;;;0.70;0.70;;;;;;;;;;5086952;28;20043;-53
2021/06/27 01:15:18;;;;;;;0.70;0.70;;;;;;;;;;5091874;28;20047;-52
2021/06/27 01:17:46;;;;;;;1.15;0.80;;;;;;;;;;5090055;28;20036;-53
2021/06/27 01:20:21;;;;;;;2.45;0.80;;;;;;;;;;5087241;28;20143;-52
2021/06/27 01:22:48;;;;;;;0.70;0.70;;;;;;;;;;5091161;28;20126;-53
2021/06/27 01:25:17;;;;;;;2.20;0.88;;;;;;;;;;5090116;28;20418;-52
2021/06/27 01:27:44;;;;;;;1.40;0.80;;;;;;;;;;5090207;28;20496;-53
2021/06/27 01:30:11;;;;;;;1.50;0.75;;;;;;;;;;5089535;28;20039;-53
2021/06/27 01:32:39;;;;;;;1.60;0.80;;;;;;;;;;5088813;28;20056;-53
2021/06/27 01:35:07;;;;;;;0.85;0.80;;;;;;;;;;5089624;28;20396;-53
2021/06/27 01:37:34;;;;;;;0.80;0.80;;;;;;;;;;5088984;28;20038;-51
2021/06/27 01:40:01;;;;;;;0.82;0.82;;;;;;;;;;5091461;28;20036;-53
2021/06/27 01:42:28;;;;;;;3.75;1.23;;;;;;;;;;5095543;28;20036;-53
2021/06/27 01:44:54;;;;;;;0.80;0.80;;;;;;;;;;5089931;28;20407;-53
2021/06/27 01:47:28;;;;;;;1.85;0.75;;;;;;;;;;5091183;28;20040;-51
2021/06/27 01:49:55;;;;;;;1.55;0.82;;;;;;;;;;5088337;28;20044;-53
2021/06/27 01:52:22;;;;;;;0.80;0.80;;;;;;;;;;5089253;28;20048;-52
2021/06/27 01:54:49;;;;;;;0.88;0.82;;;;;;;;;;5090107;28;20040;-53
2021/06/27 01:57:20;;;;;;;1.00;0.90;;;;;;;;;;5088765;28;20039;-53
2021/06/27 01:59:50;;;;;;;0.70;0.70;;;;;;;;;;5090861;28;20123;-52
2021/06/27 02:02:17;;;;;;;3.17;0.88;;;;;;;;;;5088902;28;20088;-53
2021/06/27 02:04:44;;;;;;;0.90;0.90;;;;;;;;;;5088376;28;20473;-52
2021/06/27 02:07:11;;;;;;;0.85;0.80;;;;;;;;;;5090470;28;20059;-53
2021/06/27 02:09:38;;;;;;;1.55;0.80;;;;;;;;;;5090257;28;20040;-52
2021/06/27 02:12:05;;;;;;;5.70;0.77;;;;;;;;;;5090002;28;20093;-52
2021/06/27 02:14:32;;;;;;;1.60;0.90;;;;;;;;;;5088344;28;20032;-53
2021/06/27 02:16:58;;;;;;;1.00;0.90;;;;;;;;;;5087482;28;20047;-52
2021/06/27 02:19:25;;;;;;;0.80;0.80;;;;;;;;;;5090152;28;20456;-52
2021/06/27 02:21:52;;;;;;;0.88;0.80;;;;;;;;;;5088402;28;20044;-53
2021/06/27 02:24:19;;;;;;;0.80;0.80;;;;;;;;;;5089959;28;20114;-53
2021/06/27 02:26:45;;;;;;;0.95;0.90;;;;;;;;;;5088394;28;20419;-50
2021/06/27 02:29:12;;;;;;;1.05;0.80;;;;;;;;;;5090442;28;20048;-52
2021/06/27 02:31:39;;;;;;;3.58;0.80;;;;;;;;;;5090231;28;20369;-51
2021/06/27 02:34:07;;;;;;;1.38;0.80;;;;;;;;;;5091808;28;20036;-53
2021/06/27 02:36:33;;;;;;;0.95;0.95;;;;;;;;;;5089736;28;20090;-53
2021/06/27 02:39:00;;;;;;;3.33;0.85;;;;;;;;;;5089893;28;20131;-53
2021/06/27 02:41:27;;;;;;;1.15;0.80;;;;;;;;;;5086368;28;20062;-53
2021/06/27 02:43:54;;;;;;;2.25;0.88;;;;;;;;;;5089833;28;20048;-53
2021/06/27 02:46:21;;;;;;;2.30;0.88;;;;;;;;;;5087752;28;20067;-51
2021/06/27 02:48:48;;;;;;;1.83;0.88;;;;;;;;;;5090106;28;20495;-53
2021/06/27 02:51:14;;;;;;;3.22;0.90;;;;;;;;;;5090679;28;20032;-54
2021/06/27 02:53:41;;;;;;;1.15;1.15;;;;;;;;;;5086883;28;20040;-53
2021/06/27 02:56:08;;;;;;;1.67;0.95;;;;;;;;;;5089737;28;20383;-52
2021/06/27 02:58:39;;;;;;;0.90;0.90;;;;;;;;;;5087343;28;20028;-50
2021/06/27 03:01:06;;;;;;;0.90;0.90;;;;;;;;;;5087584;28;20047;-53
2021/06/27 03:03:33;;;;;;;0.90;0.90;;;;;;;;;;5089633;28;20040;-53
2021/06/27 03:06:00;;;;;;;1.00;1.00;;;;;;;;;;5087511;28;20044;-52
2021/06/27 03:08:27;;;;;;;1.80;0.88;;;;;;;;;;5089536;28;20028;-52
2021/06/27 03:10:54;;;;;;;1.23;1.23;;;;;;;;;;5085240;28;20472;-52
2021/06/27 03:13:21;;;;;;;1.95;0.90;;;;;;;;;;5088800;28;20070;-52
2021/06/27 03:15:48;;;;;;;0.90;0.90;;;;;;;;;;5091090;28;20105;-52
2021/06/27 03:18:14;;;;;;;0.80;0.80;;;;;;;;;;5092463;28;20024;-53
2021/06/27 03:20:41;;;;;;;0.90;0.90;;;;;;;;;;5089670;28;20072;-53
2021/06/27 03:23:09;;;;;;;0.90;0.90;;;;;;;;;;5090099;28;20028;-53
2021/06/27 03:25:37;;;;;;;1.08;1.00;;;;;;;;;;5090745;28;20036;-53
2021/06/27 03:28:04;;;;;;;0.80;0.80;;;;;;;;;;5093553;28;20566;-53
2021/06/27 03:30:31;;;;;;;1.33;0.90;;;;;;;;;;5091699;28;20047;-52
2021/06/27 03:32:58;;;;;;;1.77;0.80;;;;;;;;;;5093000;28;20675;-53
2021/06/27 03:35:25;;;;;;;1.55;0.80;;;;;;;;;;5091786;28;20395;-52
2021/06/27 03:38:20;;;;;;;0.82;0.82;;;;;;;;;;5092384;28;20040;-53
2021/06/27 03:40:41;;;;;;;0.95;0.95;;;;;;;;;;5091587;28;20035;-53
2021/06/27 03:43:08;;;;;;;0.90;0.90;;;;;;;;;;5090889;28;20143;-54
2021/06/27 03:45:35;;;;;;;0.90;0.90;;;;;;;;;;5090472;28;20048;-53
2021/06/27 03:48:02;;;;;;;3.05;0.90;;;;;;;;;;5093892;28;20040;-53
2021/06/27 03:50:28;;;;;;;0.80;0.80;;;;;;;;;;5089588;28;20048;-51
2021/06/27 03:52:55;;;;;;;1.10;1.00;;;;;;;;;;5093167;28;20117;-52
2021/06/27 03:55:22;;;;;;;1.25;0.90;;;;;;;;;;5091043;28;20667;-54
2021/06/27 03:57:49;;;;;;;0.90;0.90;;;;;;;;;;5080214;28;20034;-54
2021/06/27 04:00:17;;;;;;;0.93;0.93;;;;;;;;;;5093493;28;20040;-52
2021/06/27 04:02:44;;;;;;;1.00;0.93;;;;;;;;;;5092509;28;20093;-52
2021/06/27 04:05:12;;;;;;;1.45;1.35;;;;;;;;;;5092555;28;20051;-53
2021/06/27 04:07:39;;;;;;;0.98;0.98;;;;;;;;;;5090588;28;20430;-52
2021/06/27 04:10:07;;;;;;;1.20;1.20;;;;;;;;;;5091456;28;20028;-52
2021/06/27 04:12:34;;;;;;;0.90;0.90;;;;;;;;;;5093539;28;20456;-52
2021/06/27 04:15:01;;;;;;;1.98;1.00;;;;;;;;;;5093335;28;20086;-53
2021/06/27 04:17:28;;;;;;;1.48;1.20;;;;;;;;;;5091665;28;20119;-53
2021/06/27 04:19:56;;;;;;;0.90;0.90;;;;;;;;;;5090635;28;20544;-54
2021/06/27 04:22:23;;;;;;;0.90;0.90;;;;;;;;;;5089910;28;20047;-54
2021/06/27 04:24:50;;;;;;;1.23;0.90;;;;;;;;;;5093397;28;20050;-53
2021/06/27 04:27:17;;;;;;;1.00;0.90;;;;;;;;;;5088808;28;20048;-54
2021/06/27 04:29:44;;;;;;;0.90;0.90;;;;;;;;;;5091652;28;20042;-54
2021/06/27 04:32:10;;;;;;;0.90;0.90;;;;;;;;;;5091500;28;20059;-53
2021/06/27 04:34:37;;;;;;;0.88;0.88;;;;;;;;;;5092675;28;20040;-53
2021/06/27 04:37:04;;;;;;;1.00;1.00;;;;;;;;;;5089800;28;20422;-53
2021/06/27 04:39:31;;;;;;;0.80;0.80;;;;;;;;;;5090556;28;20036;-53
2021/06/27 04:41:58;;;;;;;1.00;0.90;;;;;;;;;;5089395;28;20037;-54
2021/06/27 04:44:24;;;;;;;0.90;0.90;;;;;;;;;;5091621;28;20036;-53
2021/06/27 04:46:51;;;;;;;1.20;0.90;;;;;;;;;;5091303;28;20050;-53
2021/06/27 04:49:18;;;;;;;1.65;0.95;;;;;;;;;;5091522;28;20040;-53
2021/06/27 04:51:45;;;;;;;0.93;0.93;;;;;;;;;;5090951;28;20040;-54
2021/06/27 04:54:11;;;;;;;0.90;0.90;;;;;;;;;;5090238;28;20036;-53
2021/06/27 04:56:38;;;;;;;2.92;1.05;;;;;;;;;;5091438;28;20051;-54
2021/06/27 04:59:05;;;;;;;1.38;0.90;;;;;;;;;;5088639;28;20678;-54
2021/06/27 05:01:32;;;;;;;0.90;0.90;;;;;;;;;;5100456;28;20507;-54
2021/06/27 05:03:59;;;;;;;0.80;0.80;;;;;;;;;;5089636;28;20472;-53
2021/06/27 05:06:25;;;;;;;0.93;0.90;;;;;;;;;;5090153;28;20040;-53
2021/06/27 05:08:52;;;;;;;1.23;1.00;;;;;;;;;;5090347;28;20038;-54
2021/06/27 05:11:19;;;;;;;0.80;0.80;;;;;;;;;;5090068;28;20557;-53
2021/06/27 05:13:46;;;;;;;1.10;0.80;;;;;;;;;;5091064;28;20044;-53
2021/06/27 05:16:13;;;;;;;1.00;0.80;;;;;;;;;;5088757;28;20044;-54
2021/06/27 05:18:40;;;;;;;2.63;0.90;;;;;;;;;;5088606;28;20085;-53
2021/06/27 05:21:06;;;;;;;0.93;0.90;;;;;;;;;;5091540;28;20046;-52
2021/06/27 05:23:34;;;;;;;0.90;0.90;;;;;;;;;;5087895;28;20055;-54
2021/06/27 05:26:02;;;;;;;1.30;0.90;;;;;;;;;;5091223;28;20089;-53
2021/06/27 05:28:30;;;;;;;1.00;0.90;;;;;;;;;;5090445;28;20461;-54
2021/06/27 05:30:57;;;;;;;4.22;0.90;;;;;;;;;;5088981;28;20051;-53
2021/06/27 05:33:24;;;;;;;1.00;1.00;;;;;;;;;;5090801;28;20651;-52
2021/06/27 05:35:50;;;;;;;0.90;0.90;;;;;;;;;;5089159;28;20530;-54
2021/06/27 05:38:17;;;;;;;2.47;0.98;;;;;;;;;;5102135;28;20027;-52
2021/06/27 05:40:44;;;;;;;1.23;1.13;;;;;;;;;;5089921;28;20209;-53
2021/06/27 05:43:11;;;;;;;1.02;0.90;;;;;;;;;;5089567;28;20366;-53
2021/06/27 05:45:38;;;;;;;0.90;0.90;;;;;;;;;;5091242;28;20040;-53
2021/06/27 05:48:05;;;;;;;1.48;1.45;;;;;;;;;;5089463;28;20294;-54
2021/06/27 05:50:31;;;;;;;1.50;0.90;;;;;;;;;;5088680;28;20040;-53
2021/06/27 05:52:59;;;;;;;1.35;0.80;;;;;;;;;;5090782;28;20480;-51
2021/06/27 05:55:26;;;;;;;2.78;1.35;;;;;;;;;;5090881;28;20044;-53
2021/06/27 05:57:53;;;;;;;0.93;0.90;;;;;;;;;;5090414;28;20048;-53
2021/06/27 06:00:20;;;;;;;0.90;0.90;;;;;;;;;;5088441;28;20519;-52
2021/06/27 06:02:47;;;;;;;0.80;0.80;;;;;;;;;;5088344;28;20040;-53
2021/06/27 06:05:14;;;;;;;0.90;0.90;;;;;;;;;;5091216;28;20363;-54
2021/06/27 06:07:41;;;;;;;0.80;0.80;;;;;;;;;;5086431;28;20040;-53
2021/06/27 06:10:08;;;;;;;0.77;0.75;;;;;;;;;;5084167;28;20415;-54
2021/06/27 06:12:35;;;;;;;1.10;1.00;;;;;;;;;;5087793;28;20032;-52
2021/06/27 06:15:02;;;;;;;1.60;0.90;;;;;;;;;;5086634;28;20520;-53
2021/06/27 06:17:29;;;;;;;0.80;0.80;;;;;;;;;;5091195;28;20036;-53
2021/06/27 06:19:56;;;;;;;0.93;0.80;;;;;;;;;;5088005;28;20044;-54
2021/06/27 06:22:23;;;;;;;0.80;0.80;;;;;;;;;;5091329;28;20557;-51
2021/06/27 06:24:54;;;;;;;2.38;0.80;;;;;;;;;;5088775;28;20047;-52
2021/06/27 06:27:21;;;;;;;0.70;0.70;;;;;;;;;;5088100;28;20047;-53
2021/06/27 06:29:48;;;;;;;2.38;1.67;;;;;;;;;;5090573;28;20036;-52
2021/06/27 06:32:14;;;;;;;0.80;0.80;;;;;;;;;;5088588;28;20060;-53
2021/06/27 06:34:41;;;;;;;2.17;0.70;;;;;;;;;;5088227;28;20421;-54
2021/06/27 06:37:08;;;;;;;2.28;0.70;;;;;;;;;;5090212;28;20036;-54
2021/06/27 06:39:35;;;;;;;0.90;0.90;;;;;;;;;;5087775;28;20047;-53
2021/06/27 06:42:02;;;;;;;0.70;0.70;;;;;;;;;;5082633;28;20041;-54
2021/06/27 06:44:28;;;;;;;0.75;0.75;;;;;;;;;;5080945;28;20496;-54
2021/06/27 06:46:55;;;;;;;0.70;0.70;;;;;;;;;;5073826;28;20040;-53
2021/06/27 06:49:22;;;;;;;1.75;0.70;;;;;;;;;;5090930;28;20048;-54
2021/06/27 06:51:49;;;;;;;0.95;0.70;;;;;;;;;;5091673;28;20063;-52
2021/06/27 06:54:16;;;;;;;0.70;0.70;;;;;;;;;;5092355;28;20044;-52
2021/06/27 06:56:42;;;;;;;5.50;0.95;;;;;;;;;;5093304;28;20048;-51
2021/06/27 06:59:09;;;;;;;0.60;0.60;;;;;;;;;;5091822;28;20520;-51
2021/06/27 07:01:40;;;;;;;1.70;0.90;;;;;;;;;;5094000;28;20036;-51
2021/06/27 07:04:07;;;;;;;1.48;0.70;;;;;;;;;;5090078;28;20046;-52
2021/06/27 07:06:34;;;;;;;0.70;0.70;;;;;;;;;;5095366;28;20399;-51
2021/06/27 07:09:00;;;;;;;0.70;0.70;;;;;;;;;;5092366;28;20693;-53
2021/06/27 07:11:27;;;;;;;0.70;0.70;;;;;;;;;;5090937;28;20043;-53
2021/06/27 07:13:54;;;;;;;3.67;2.05;;;;;;;;;;5094680;28;20563;-54
2021/06/27 07:16:21;;;;;;;0.63;0.63;;;;;;;;;;5092726;28;20075;-53
2021/06/27 07:18:48;;;;;;;0.60;0.60;;;;;;;;;;5092977;28;20500;-54
2021/06/27 07:21:15;;;;;;;5.93;0.70;;;;;;;;;;5092553;28;20066;-54
2021/06/27 07:23:42;;;;;;;1.65;0.90;;;;;;;;;;5090989;28;20040;-54
2021/06/27 07:26:09;;;;;;;0.75;0.60;;;;;;;;;;5094183;28;20048;-53
2021/06/27 07:28:35;;;;;;;0.70;0.70;;;;;;;;;;5092491;28;20043;-53
2021/06/27 07:31:02;;;;;;;0.82;0.60;;;;;;;;;;5093798;28;20040;-54
2021/06/27 07:33:29;;;;;;;0.73;0.60;;;;;;;;;;5093519;28;20080;-53
2021/06/27 07:35:56;;;;;;;0.60;0.60;;;;;;;;;;5090101;28;20086;-52
2021/06/27 07:38:22;;;;;;;0.60;0.60;;;;;;;;;;5093430;28;20123;-53
2021/06/27 07:40:50;;;;;;;0.60;0.60;;;;;;;;;;5093667;28;20040;-54
2021/06/27 07:43:17;;;;;;;0.80;0.60;;;;;;;;;;5093930;28;20038;-54
2021/06/27 07:45:44;;;;;;;2.03;1.40;;;;;;;;;;5086606;28;20119;-54
2021/06/27 07:48:12;;;;;;;1.40;0.50;;;;;;;;;;5080631;28;20123;-53
2021/06/27 07:50:43;;;;;;;9.60;0.75;;;;;;;;;;5093784;28;20036;-54
2021/06/27 07:53:10;;;;;;;0.60;0.50;;;;;;;;;;5092481;28;20549;-55
2021/06/27 07:55:37;;;;;;;0.73;0.40;;;;;;;;;;5088264;28;20044;-53
2021/06/27 07:58:04;;;;;;;0.50;0.50;;;;;;;;;;5093590;28;20071;-54
2021/06/27 08:00:31;;;;;;;2.08;0.50;;;;;;;;;;5089133;28;20039;-54
2021/06/27 08:02:59;;;;;;;2.70;0.60;;;;;;;;;;5091284;28;20040;-55
2021/06/27 08:05:26;;;;;;;2.30;0.73;;;;;;;;;;5093255;28;20043;-55
2021/06/27 08:07:53;;;;;;;0.40;0.40;;;;;;;;;;5092324;28;20039;-55
2021/06/27 08:10:24;;;;;;;0.95;0.77;;;;;;;;;;5093350;28;20106;-55
2021/06/27 08:12:51;;;;;;;0.50;0.50;;;;;;;;;;5090756;28;20048;-55
2021/06/27 08:15:18;;;;;;;0.50;0.50;;;;;;;;;;5085086;28;20102;-54
2021/06/27 08:17:49;;;;;;;0.73;0.40;;;;;;;;;;5084125;28;20028;-55
2021/06/27 08:20:17;;;;;;;0.40;0.40;;;;;;;;;;5087099;28;20066;-54
2021/06/27 08:22:43;;;;;;;0.40;0.40;;;;;;;;;;5091301;28;20054;-55
2021/06/27 08:25:10;;;;;;;0.40;0.40;;;;;;;;;;5087420;28;20512;-54
2021/06/27 08:27:37;;;;;;;0.40;0.40;;;;;;;;;;5085316;28;20063;-54
2021/06/27 08:30:08;;;;;;;0.40;0.40;;;;;;;;;;5086755;28;20040;-55
2021/06/27 08:32:35;;;;;;;2.47;0.50;;;;;;;;;;5088531;28;20369;-54
2021/06/27 08:35:02;;;;;;;0.40;0.40;;;;;;;;;;5088086;28;20063;-53
2021/06/27 08:37:29;;;;;;;1.45;0.40;;;;;;;;;;5088633;28;20035;-54
2021/06/27 08:39:56;;;;;;;0.57;0.30;;;;;;;;;;5089417;28;20044;-54
2021/06/27 08:42:23;;;;;;;1.05;0.30;;;;;;;;;;5089238;28;20487;-54
2021/06/27 08:44:50;;;;;;;0.45;0.38;;;;;;;;;;5075969;28;20047;-56
2021/06/27 08:47:18;;;;;;;0.30;0.30;;;;;;;;;;5092512;28;20044;-56
2021/06/27 08:49:45;;;;;;;1.05;0.30;;;;;;;;;;5089216;28;20426;-56
2021/06/27 08:52:16;;;;;;;0.75;0.30;;;;;;;;;;5091505;28;20039;-56
2021/06/27 08:54:44;;;;;;;1.70;0.30;;;;;;;;;;5089544;28;20048;-56
2021/06/27 08:57:13;;;;;;;0.80;0.30;;;;;;;;;;5088776;28;20044;-55
2021/06/27 08:59:41;;;;;;;0.30;0.30;;;;;;;;;;5092796;28;20042;-55
2021/06/27 09:02:08;;;;;;;0.30;0.30;;;;;;;;;;5089189;28;20032;-56
2021/06/27 09:04:40;;;;;;;0.30;0.30;;;;;;;;;;5090943;28;20032;-56
2021/06/27 09:07:26;;;;;;;0.60;0.28;;;;;;;;;;5091725;28;20044;-56
2021/06/27 09:09:54;;;;;;;1.02;0.20;;;;;;;;;;5090665;28;20040;-56
2021/06/27 09:12:20;;;;;;;0.30;0.30;;;;;;;;;;5090808;28;20036;-56
2021/06/27 09:14:47;;;;;;;0.20;0.20;;;;;;;;;;5090978;28;20389;-56
2021/06/27 09:17:19;;;;;;;0.20;0.20;;;;;;;;;;5091143;28;20063;-56
2021/06/27 09:19:55;;;;;;;0.28;0.28;;;;;;;;;;5091952;28;20500;-55
2021/06/27 09:22:22;;;;;;;0.30;0.30;;;;;;;;;;5091462;28;20059;-55
2021/06/27 09:24:49;;;;;;;0.20;0.20;;;;;;;;;;5090877;28;20042;-56
2021/06/27 09:27:17;;;;;;;0.20;0.20;;;;;;;;;;5091428;28;20032;-56
2021/06/27 09:29:44;;;;;;;0.20;0.20;;;;;;;;;;5089635;28;20047;-56
2021/06/27 09:32:17;;;;;;;0.93;0.25;;;;;;;;;;5092070;28;20067;-56
2021/06/27 09:34:45;;;;;;;1.85;0.40;;;;;;;;;;5090619;28;20058;-56
2021/06/27 09:37:13;;;;;;;1.38;0.30;;;;;;;;;;5089743;28;20040;-56
2021/06/27 09:39:58;;;;;;;0.22;0.20;;;;;;;;;;5092663;28;20476;-56
2021/06/27 09:42:25;;;;;;;2.05;0.25;;;;;;;;;;5090012;28;20098;-56
2021/06/27 09:45:02;;;;;;;1.25;0.30;;;;;;;;;;5090049;28;20048;-55
2021/06/27 09:47:29;;;;;;;1.65;0.20;;;;;;;;;;5090211;28;20456;-56
2021/06/27 09:49:56;;;;;;;0.20;0.20;;;;;;;;;;5088565;28;20047;-55
2021/06/27 09:52:36;;;;;;;0.20;0.20;;;;;;;;;;5090369;28;20090;-56
2021/06/27 09:55:10;;;;;;;2.30;0.20;;;;;;;;;;5089259;28;20035;-60
2021/06/27 09:57:37;;;;;;;0.20;0.20;;;;;;;;;;5087071;28;20040;-56
2021/06/27 10:00:23;;;;;;;0.20;0.20;;;;;;;;;;5091213;28;20039;-56
2021/06/27 10:03:04;;;;;;;1.30;0.20;;;;;;;;;;5090616;28;20036;-56
2021/06/27 10:05:33;;;;;;;0.50;0.20;;;;;;;;;;5090114;28;20113;-56
2021/06/27 10:07:59;;;;;;;0.30;0.20;;;;;;;;;;5090442;28;20073;-56
2021/06/27 10:10:26;;;;;;;3.40;0.40;;;;;;;;;;5088350;28;20042;-56
2021/06/27 10:12:53;;;;;;;0.22;0.20;;;;;;;;;;5090244;28;20032;-55
2021/06/27 10:15:20;;;;;;;0.20;0.20;;;;;;;;;;5086916;28;20037;-55
2021/06/27 10:17:47;;;;;;;1.15;0.28;;;;;;;;;;5088076;28;20036;-56
2021/06/27 10:20:14;;;;;;;1.75;0.20;;;;;;;;;;5089483;28;20031;-56
2021/06/27 10:22:41;;;;;;;0.10;0.10;;;;;;;;;;5086791;28;20606;-56
2021/06/27 10:25:15;;;;;;;0.20;0.20;;;;;;;;;;5095267;28;20040;-56
2021/06/27 10:27:42;;;;;;;0.60;0.30;;;;;;;;;;5086324;28;20399;-56
2021/06/27 10:30:11;;;;;;;0.25;0.20;;;;;;;;;;5088989;28;20050;-56
2021/06/27 10:32:39;;;;;;;0.20;0.20;;;;;;;;;;5090073;28;20051;-57
2021/06/27 10:35:08;;;;;;;0.73;0.20;;;;;;;;;;5086737;28;20070;-56
2021/06/27 10:37:37;;;;;;;0.50;0.20;;;;;;;;;;5089488;28;20043;-56
2021/06/27 10:40:11;;;;;;;0.22;0.20;;;;;;;;;;5086674;28;20346;-56
2021/06/27 10:42:47;;;;;;;0.30;0.20;;;;;;;;;;5086665;28;20036;-56
2021/06/27 10:45:14;;;;;;;0.30;0.20;;;;;;;;;;5096577;28;20399;-55
2021/06/27 10:47:41;;;;;;;0.82;0.17;;;;;;;;;;5084268;28;20411;-56
2021/06/27 10:50:11;;;;;;;0.20;0.20;;;;;;;;;;5088390;28;20040;-57
2021/06/27 10:52:58;;;;;;;0.20;0.20;;;;;;;;;;5089173;28;20032;-56
2021/06/27 10:55:41;;;;;;;0.20;0.20;;;;;;;;;;5083077;28;20054;-56
2021/06/27 10:58:10;;;;;;;0.20;0.20;;;;;;;;;;5083353;28;20059;-56
2021/06/27 11:00:56;;;;;;;0.10;0.10;;;;;;;;;;5089007;28;20032;-56
2021/06/27 11:03:30;;;;;;;0.82;0.20;;;;;;;;;;5087534;28;20036;-56
2021/06/27 11:05:59;;;;;;;0.15;0.15;;;;;;;;;;5088672;28;20043;-56
2021/06/27 11:08:33;;;;;;;0.20;0.20;;;;;;;;;;5089709;28;20036;-56
2021/06/27 11:11:17;;;;;;;0.20;0.20;;;;;;;;;;5087869;28;20126;-56
2021/06/27 11:14:04;;;;;;;0.20;0.20;;;;;;;;;;5088707;28;20050;-56
2021/06/27 11:16:31;;;;;;;1.05;0.20;;;;;;;;;;5088101;28;20109;-56
2021/06/27 11:18:58;;;;;;;0.20;0.20;;;;;;;;;;5087069;28;20650;-56
2021/06/27 11:21:33;;;;;;;0.20;0.20;;;;;;;;;;5075145;28;20044;-56
2021/06/27 11:24:01;;;;;;;0.30;0.20;;;;;;;;;;5085944;28;20044;-56
2021/06/27 11:26:48;;;;;;;0.20;0.20;;;;;;;;;;5088101;28;20051;-56
2021/06/27 11:29:20;;;;;;;0.20;0.20;;;;;;;;;;5090874;28;20044;-56
2021/06/27 11:31:48;;;;;;;0.20;0.20;;;;;;;;;;5087616;28;20032;-57
2021/06/27 11:34:21;;;;;;;0.20;0.20;;;;;;;;;;5071371;28;20396;-56
2021/06/27 11:36:48;;;;;;;1.20;0.30;;;;;;;;;;5097779;28;20047;-57
2021/06/27 11:39:33;;;;;;;0.20;0.20;;;;;;;;;;5098595;28;20032;-56
2021/06/27 11:42:00;;;;;;;1.48;0.65;;;;;;;;;;5092392;28;20094;-56
2021/06/27 11:44:27;;;;;;;0.20;0.20;;;;;;;;;;5090875;28;20822;-56
2021/06/27 11:46:54;;;;;;;1.98;0.20;;;;;;;;;;5090529;28;20029;-56
2021/06/27 11:49:28;;;;;;;0.20;0.15;;;;;;;;;;5093105;28;20040;-56
2021/06/27 11:51:54;;;;;;;1.00;0.20;;;;;;;;;;5091783;28;20040;-56
2021/06/27 11:54:25;;;;;;;0.95;0.20;;;;;;;;;;5091410;28;20032;-56
2021/06/27 11:56:57;;;;;;;0.10;0.10;;;;;;;;;;5090677;28;20109;-56
2021/06/27 11:59:27;;;;;;;0.17;0.10;;;;;;;;;;5090962;28;20128;-56
2021/06/27 12:02:07;;;;;;;0.13;0.13;;;;;;;;;;5092930;28;20105;-57
2021/06/27 12:04:41;;;;;;;0.20;0.20;;;;;;;;;;5089324;28;20119;-56
2021/06/27 12:07:26;;;;;;;0.20;0.20;;;;;;;;;;5089238;28;20097;-56
2021/06/27 12:09:53;;;;;;;0.10;0.10;;;;;;;;;;5093933;28;20044;-56
2021/06/27 12:12:33;;;;;;;0.40;0.10;;;;;;;;;;5089911;28;20048;-55
2021/06/27 12:15:00;;;;;;;0.15;0.15;;;;;;;;;;5089537;28;20044;-56
2021/06/27 12:17:27;;;;;;;0.10;0.10;;;;;;;;;;5090029;28;20036;-56
2021/06/27 12:19:57;;;;;;;0.20;0.20;;;;;;;;;;5089156;28;20430;-56
2021/06/27 12:22:23;;;;;;;0.13;0.13;;;;;;;;;;5092240;28;20434;-56
2021/06/27 12:24:50;;;;;;;1.90;0.30;;;;;;;;;;5088849;28;20058;-56
2021/06/27 12:27:17;;;;;;;0.50;0.10;;;;;;;;;;5092058;28;20039;-57
2021/06/27 12:29:53;;;;;;;0.82;0.10;;;;;;;;;;5092175;28;20094;-55
2021/06/27 12:32:20;;;;;;;0.20;0.20;;;;;;;;;;5090327;28;20505;-56
2021/06/27 12:34:47;;;;;;;0.20;0.20;;;;;;;;;;5089942;28;20070;-56
2021/06/27 12:37:14;;;;;;;1.20;0.10;;;;;;;;;;5097352;28;20031;-56
2021/06/27 12:39:41;;;;;;;0.10;0.10;;;;;;;;;;5089744;28;20040;-56
2021/06/27 12:42:15;;;;;;;0.10;0.10;;;;;;;;;;5093498;28;20039;-56
2021/06/27 12:44:42;;;;;;;0.10;0.10;;;;;;;;;;5090050;28;20044;-55
2021/06/27 12:47:09;;;;;;;0.20;0.20;;;;;;;;;;5089327;28;20040;-56
2021/06/27 12:49:37;;;;;;;0.43;0.10;;;;;;;;;;5091857;28;20040;-55
2021/06/27 12:52:05;;;;;;;0.10;0.10;;;;;;;;;;5091658;28;20032;-56
2021/06/27 12:54:43;;;;;;;0.10;0.10;;;;;;;;;;5105928;28;20664;-56
2021/06/27 12:57:13;;;;;;;0.17;0.10;;;;;;;;;;5089234;28;20036;-57
2021/06/27 12:59:42;;;;;;;0.20;0.20;;;;;;;;;;5090117;28;20040;-55
2021/06/27 13:02:10;;;;;;;0.20;0.10;;;;;;;;;;5092873;28;20040;-56
2021/06/27 13:04:40;;;;;;;0.75;0.20;;;;;;;;;;5089084;28;20049;-56
2021/06/27 13:07:08;;;;;;;0.10;0.10;;;;;;;;;;5077116;28;20645;-57
2021/06/27 13:09:39;;;;;;;2.13;0.10;;;;;;;;;;5092111;28;20036;-56
2021/06/27 13:12:17;;;;;;;0.10;0.10;;;;;;;;;;5090356;28;20032;-56
2021/06/27 13:15:03;;;;;;;0.10;0.10;;;;;;;;;;5091186;28;20457;-56
2021/06/27 13:17:38;;;;;;;1.00;0.20;;;;;;;;;;5088254;28;20040;-56
2021/06/27 13:20:14;;;;;;;1.35;0.20;;;;;;;;;;5089869;28;20040;-55
2021/06/27 13:22:54;;;;;;;0.20;0.20;;;;;;;;;;5081469;28;20522;-56
2021/06/27 13:25:29;;;;;;;0.10;0.10;;;;;;;;;;5088713;28;20082;-55
2021/06/27 13:27:57;;;;;;;0.43;0.20;;;;;;;;;;5087206;28;20119;-55
2021/06/27 13:30:24;;;;;;;0.20;0.20;;;;;;;;;;5092260;28;20549;-56
2021/06/27 13:33:07;;;;;;;0.30;0.20;;;;;;;;;;5089936;28;20056;-57
2021/06/27 13:35:35;;;;;;;0.20;0.20;;;;;;;;;;5074493;28;20047;-56
2021/06/27 13:38:05;;;;;;;0.35;0.20;;;;;;;;;;5090668;28;20055;-56
2021/06/27 13:40:34;;;;;;;0.80;0.63;;;;;;;;;;5089012;28;20419;-56
2021/06/27 13:43:02;;;;;;;1.00;0.20;;;;;;;;;;5090657;28;20468;-56
2021/06/27 13:45:29;;;;;;;0.20;0.20;;;;;;;;;;5088874;28;20067;-56
2021/06/27 13:47:56;;;;;;;0.20;0.20;;;;;;;;;;5088218;28;20036;-56
2021/06/27 13:50:24;;;;;;;0.55;0.13;;;;;;;;;;5090885;28;20639;-55
2021/06/27 13:52:51;;;;;;;0.10;0.10;;;;;;;;;;5088291;28;20043;-56
2021/06/27 13:55:19;;;;;;;1.55;0.20;;;;;;;;;;5090124;28;20134;-57
2021/06/27 13:57:46;;;;;;;0.10;0.10;;;;;;;;;;5090514;28;20040;-56
2021/06/27 14:00:14;;;;;;;0.10;0.10;;;;;;;;;;5089307;28;20081;-56
2021/06/27 14:02:41;;;;;;;0.20;0.20;;;;;;;;;;5091129;28;20503;-56
2021/06/27 14:05:09;;;;;;;1.02;0.20;;;;;;;;;;5089330;28;20040;-57
2021/06/27 14:07:36;;;;;;;0.50;0.10;;;;;;;;;;5090785;28;20040;-57
2021/06/27 14:10:04;;;;;;;0.10;0.10;;;;;;;;;;5091454;28;20130;-56
2021/06/27 14:12:30;;;;;;;0.10;0.10;;;;;;;;;;5089037;28;20491;-57
2021/06/27 14:14:59;;;;;;;0.45;0.20;;;;;;;;;;5090098;28;20068;-57
2021/06/27 14:17:28;;;;;;;1.05;0.10;;;;;;;;;;5088536;28;20032;-55
2021/06/27 14:19:55;;;;;;;0.80;0.20;;;;;;;;;;5097429;28;20048;-56
2021/06/27 14:22:22;;;;;;;0.17;0.17;;;;;;;;;;5089818;28;20115;-55
2021/06/27 14:24:49;;;;;;;0.20;0.20;;;;;;;;;;5087604;28;20484;-55
2021/06/27 14:27:16;;;;;;;0.10;0.10;;;;;;;;;;5091691;28;20032;-56
2021/06/27 14:29:44;;;;;;;0.10;0.10;;;;;;;;;;5086386;28;20392;-55
2021/06/27 14:32:11;;;;;;;0.20;0.20;;;;;;;;;;5086437;28;20032;-55
2021/06/27 14:34:38;;;;;;;0.20;0.20;;;;;;;;;;5088962;28;20048;-56
2021/06/27 14:37:05;;;;;;;1.52;0.10;;;;;;;;;;5086937;28;20059;-55
2021/06/27 14:39:32;;;;;;;0.10;0.10;;;;;;;;;;5091495;28;20496;-56
2021/06/27 14:41:59;;;;;;;0.70;0.20;;;;;;;;;;5084007;28;20068;-56
2021/06/27 14:44:26;;;;;;;0.10;0.10;;;;;;;;;;5082035;28;20039;-56
2021/06/27 14:46:53;;;;;;;0.10;0.10;;;;;;;;;;5090887;28;20511;-56
2021/06/27 14:49:21;;;;;;;0.20;0.20;;;;;;;;;;5087114;28;20059;-56
2021/06/27 14:51:50;;;;;;;0.10;0.10;;;;;;;;;;5083209;28;20044;-57